Time;durP1;ratioP1;P1;durP2;ratioP2;P2;SDS_P1;SDS_P2;PMS_P1;PMS_P2;Temp;Humidity;BMP_temperature;BMP_pressure;BME280_temperature;BME280_humidity;BME280_pressure;Samples;Min_cycle;Max_cycle;Signal;HPM_P1;HPM_P2
2021/06/20 00:00:39;;;;;;;4.40;2.35;;;;;;;23.97;42.03;100264.78;3578335;40;20045;-72
2021/06/20 00:03:07;;;;;;;4.13;1.90;;;;;;;23.89;42.32;100271.53;3575699;40;20081;-73
2021/06/20 00:05:43;;;;;;;3.95;2.00;;;;;;;23.85;43.48;100275.06;3576556;40;20084;-73
2021/06/20 00:08:11;;;;;;;3.65;1.90;;;;;;;23.76;42.65;100274.50;3576585;40;20393;-73
2021/06/20 00:10:40;;;;;;;3.75;2.05;;;;;;;23.73;42.30;100288.94;3577891;40;20323;-73
2021/06/20 00:13:09;;;;;;;5.32;2.22;;;;;;;23.68;42.35;100281.28;3578858;40;20433;-73
2021/06/20 00:15:39;;;;;;;3.53;2.00;;;;;;;23.64;42.70;100262.41;3575785;40;20127;-73
2021/06/20 00:18:08;;;;;;;4.45;1.98;;;;;;;23.59;42.83;100249.16;3575881;40;20051;-73
2021/06/20 00:20:41;;;;;;;4.00;1.80;;;;;;;23.60;43.16;100238.84;3578282;40;20126;-72
2021/06/20 00:23:14;;;;;;;3.83;1.60;;;;;;;23.56;43.43;100237.59;3578669;40;20051;-73
2021/06/20 00:25:43;;;;;;;4.35;1.48;;;;;;;23.50;42.93;100241.31;3575352;40;20040;-73
2021/06/20 00:28:11;;;;;;;3.55;1.55;;;;;;;23.45;43.24;100255.94;3578922;40;20149;-72
2021/06/20 00:30:41;;;;;;;5.30;1.48;;;;;;;23.43;43.42;100252.53;3574076;40;20115;-73
2021/06/20 00:33:09;;;;;;;4.13;1.40;;;;;;;23.40;43.04;100255.78;3570567;40;20037;-73
2021/06/20 00:35:39;;;;;;;3.08;1.35;;;;;;;23.40;43.16;100254.91;3568617;40;20063;-73
2021/06/20 00:38:07;;;;;;;4.47;1.40;;;;;;;23.35;43.41;100241.66;3577793;40;20134;-73
2021/06/20 00:40:36;;;;;;;3.20;1.48;;;;;;;23.32;42.84;100233.75;3577384;40;20056;-73
2021/06/20 00:43:05;;;;;;;3.53;1.40;;;;;;;23.27;42.97;100209.34;3578217;40;20383;-72
2021/06/20 00:45:33;;;;;;;2.58;1.20;;;;;;;23.24;43.17;100200.56;3578280;40;20052;-72
2021/06/20 00:48:01;;;;;;;2.45;1.05;;;;;;;23.19;43.15;100211.56;3577046;40;20340;-72
2021/06/20 00:50:30;;;;;;;3.35;1.10;;;;;;;23.16;43.03;100232.41;3576804;40;20294;-73
2021/06/20 00:53:00;;;;;;;2.95;1.30;;;;;;;23.14;43.90;100234.56;3577732;40;20053;-72
2021/06/20 00:55:30;;;;;;;2.88;1.17;;;;;;;23.09;43.48;100237.22;3577335;40;20081;-72
2021/06/20 00:57:59;;;;;;;2.97;1.08;;;;;;;23.07;43.60;100247.75;3577824;40;20048;-72
2021/06/20 01:00:28;;;;;;;2.75;1.02;;;;;;;23.03;43.79;100248.44;3578790;40;20089;-72
2021/06/20 01:02:57;;;;;;;1.92;1.00;;;;;;;22.98;43.78;100239.88;3578001;40;20107;-72
2021/06/20 01:05:25;;;;;;;2.50;1.08;;;;;;;22.92;43.73;100239.72;3576653;40;20045;-72
2021/06/20 01:07:56;;;;;;;3.33;1.20;;;;;;;22.90;44.15;100227.94;3578182;40;20045;-72
2021/06/20 01:10:29;;;;;;;2.65;1.00;;;;;;;22.88;44.16;100221.75;3575137;40;20109;-72
2021/06/20 01:12:58;;;;;;;3.55;1.00;;;;;;;22.82;44.25;100222.63;3577587;40;20061;-72
2021/06/20 01:15:28;;;;;;;2.83;1.00;;;;;;;22.81;43.95;100228.41;3576754;40;20316;-72
2021/06/20 01:17:57;;;;;;;2.15;1.17;;;;;;;22.79;43.95;100236.19;3577394;40;20338;-72
2021/06/20 01:20:25;;;;;;;2.13;0.95;;;;;;;22.76;43.94;100240.28;3577871;40;20053;-72
2021/06/20 01:22:56;;;;;;;1.65;0.80;;;;;;;22.76;44.35;100247.78;3577350;40;20041;-72
2021/06/20 01:25:26;;;;;;;2.53;1.13;;;;;;;22.71;44.23;100237.31;3577347;40;20099;-73
2021/06/20 01:28:00;;;;;;;3.65;1.10;;;;;;;22.69;43.89;100233.91;3578397;40;20052;-72
2021/06/20 01:30:30;;;;;;;2.90;1.10;;;;;;;22.68;44.04;100248.06;3577177;40;20518;-72
2021/06/20 01:33:01;;;;;;;1.67;0.90;;;;;;;22.65;44.29;100224.28;3578329;40;20297;-72
2021/06/20 01:35:29;;;;;;;1.60;0.85;;;;;;;22.62;44.10;100224.75;3577459;40;20062;-73
2021/06/20 01:38:03;;;;;;;2.75;1.10;;;;;;;22.64;45.35;100213.38;3578231;40;20068;-72
2021/06/20 01:40:31;;;;;;;2.78;1.20;;;;;;;22.60;44.55;100209.31;3576305;40;20482;-72
2021/06/20 01:43:01;;;;;;;2.97;0.90;;;;;;;22.59;44.71;100194.53;3575263;40;20091;-72
2021/06/20 01:45:30;;;;;;;3.10;1.33;;;;;;;22.60;44.90;100198.16;3577315;40;20037;-73
2021/06/20 01:48:00;;;;;;;3.40;1.15;;;;;;;22.57;44.38;100179.94;3575757;40;20972;-73
2021/06/20 01:50:31;;;;;;;2.95;1.08;;;;;;;22.53;44.17;100182.34;3576998;40;20049;-73
2021/06/20 01:53:03;;;;;;;3.10;1.27;;;;;;;22.55;45.15;100179.34;3576480;40;20495;-73
2021/06/20 01:55:35;;;;;;;3.88;1.20;;;;;;;22.52;44.47;100168.66;3578446;40;20055;-73
2021/06/20 01:58:05;;;;;;;2.58;1.30;;;;;;;22.51;44.86;100173.34;3577430;40;20141;-72
2021/06/20 02:00:38;;;;;;;3.00;1.20;;;;;;;22.51;44.66;100181.72;3576424;40;20112;-73
2021/06/20 02:03:08;;;;;;;2.25;1.08;;;;;;;22.53;44.71;100193.50;3573983;40;20398;-73
2021/06/20 02:05:37;;;;;;;2.15;1.20;;;;;;;22.52;45.32;100193.72;3577053;40;20055;-73
2021/06/20 02:08:06;;;;;;;3.25;1.20;;;;;;;22.54;45.31;100198.00;3575511;40;20051;-73
2021/06/20 02:10:35;;;;;;;2.10;1.05;;;;;;;22.51;45.29;100200.38;3582006;40;20045;-73
2021/06/20 02:13:03;;;;;;;2.80;1.30;;;;;;;22.50;45.28;100202.31;3577111;40;20048;-72
2021/06/20 02:15:33;;;;;;;3.70;1.40;;;;;;;22.50;45.28;100207.88;3577105;40;20091;-72
2021/06/20 02:18:01;;;;;;;2.72;1.17;;;;;;;22.49;45.28;100206.16;3577171;40;20340;-73
2021/06/20 02:20:30;;;;;;;3.63;1.33;;;;;;;22.48;45.35;100207.25;3577016;40;20057;-72
2021/06/20 02:23:00;;;;;;;4.75;1.42;;;;;;;22.47;45.37;100219.50;3577840;40;20044;-72
2021/06/20 02:25:30;;;;;;;3.38;1.10;;;;;;;22.48;45.71;100234.25;3576750;40;20104;-73
2021/06/20 02:27:58;;;;;;;3.30;1.35;;;;;;;22.45;45.14;100251.47;3576699;40;20060;-73
2021/06/20 02:30:26;;;;;;;4.97;1.60;;;;;;;22.43;45.60;100262.81;3576938;40;20044;-73
2021/06/20 02:32:56;;;;;;;4.40;1.70;;;;;;;22.41;45.20;100281.69;3577313;40;20045;-72
2021/06/20 02:35:25;;;;;;;4.82;1.52;;;;;;;22.38;45.41;100307.25;3575720;40;20077;-73
2021/06/20 02:37:54;;;;;;;3.65;1.52;;;;;;;22.37;45.24;100315.81;3577688;40;20049;-73
2021/06/20 02:40:23;;;;;;;3.03;1.80;;;;;;;22.34;45.23;100307.91;3575464;40;20064;-73
2021/06/20 02:42:53;;;;;;;3.45;1.30;;;;;;;22.34;45.42;100316.25;3577805;40;20052;-72
2021/06/20 02:45:22;;;;;;;4.70;1.63;;;;;;;22.31;45.40;100314.78;3576602;40;20317;-73
2021/06/20 02:47:53;;;;;;;4.82;1.70;;;;;;;22.26;46.04;100308.16;3577284;40;20056;-72
2021/06/20 02:50:21;;;;;;;4.10;1.50;;;;;;;22.22;45.97;100304.97;3575778;40;20162;-73
2021/06/20 02:52:49;;;;;;;4.80;1.63;;;;;;;22.21;45.68;100308.84;3577583;40;20065;-73
2021/06/20 02:55:18;;;;;;;4.45;1.83;;;;;;;22.21;46.15;100324.69;3577676;40;20056;-73
2021/06/20 02:57:46;;;;;;;3.13;1.73;;;;;;;22.19;46.22;100330.44;3577340;40;20060;-73
2021/06/20 03:00:17;;;;;;;3.47;1.70;;;;;;;22.22;46.47;100343.13;3576748;40;20056;-73
2021/06/20 03:02:49;;;;;;;3.58;1.52;;;;;;;22.20;45.96;100343.31;3573749;40;20045;-73
2021/06/20 03:05:18;;;;;;;2.92;1.40;;;;;;;22.21;46.07;100350.63;3577454;40;20059;-72
2021/06/20 03:07:47;;;;;;;2.90;1.50;;;;;;;22.22;46.19;100366.28;3577265;40;20056;-73
2021/06/20 03:10:16;;;;;;;5.45;2.20;;;;;;;22.24;46.05;100371.59;3577542;40;20053;-73
2021/06/20 03:12:45;;;;;;;3.72;1.73;;;;;;;22.27;46.70;100382.31;3576689;40;20324;-73
2021/06/20 03:15:14;;;;;;;4.20;1.85;;;;;;;22.30;46.20;100387.47;3577024;40;20338;-73
2021/06/20 03:17:45;;;;;;;4.53;1.73;;;;;;;22.32;46.38;100396.44;3577157;40;20354;-74
2021/06/20 03:20:14;;;;;;;6.72;1.75;;;;;;;22.31;46.51;100392.81;3578376;40;20057;-73
2021/06/20 03:22:43;;;;;;;3.17;1.63;;;;;;;22.32;46.53;100390.84;3579349;40;20413;-73
2021/06/20 03:25:12;;;;;;;3.85;1.70;;;;;;;22.34;45.84;100394.28;3579451;40;20080;-73
2021/06/20 03:27:40;;;;;;;3.42;1.63;;;;;;;22.33;46.23;100396.22;3578613;40;20618;-73
2021/06/20 03:30:09;;;;;;;3.05;1.60;;;;;;;22.34;45.94;100391.50;3579002;40;20060;-73
2021/06/20 03:32:38;;;;;;;3.33;1.50;;;;;;;22.34;45.55;100405.44;3578449;40;20049;-73
2021/06/20 03:35:09;;;;;;;3.90;1.40;;;;;;;22.34;45.40;100397.94;3579176;40;20083;-73
2021/06/20 03:37:37;;;;;;;3.72;1.70;;;;;;;22.31;45.44;100386.38;3578508;40;20049;-73
2021/06/20 03:40:07;;;;;;;3.10;1.15;;;;;;;22.28;45.23;100382.09;3578996;40;20321;-73
2021/06/20 03:42:36;;;;;;;2.88;1.30;;;;;;;22.26;44.97;100386.16;3577751;40;20092;-72
2021/06/20 03:45:08;;;;;;;2.50;1.33;;;;;;;22.23;44.81;100386.63;3578500;40;20118;-73
2021/06/20 03:47:37;;;;;;;3.85;1.33;;;;;;;22.19;44.74;100387.03;3578986;40;20040;-74
2021/06/20 03:50:09;;;;;;;2.45;1.10;;;;;;;22.18;44.86;100393.66;3578290;40;20025;-73
2021/06/20 03:52:38;;;;;;;4.90;1.40;;;;;;;22.15;44.65;100390.44;3578195;40;20061;-72
2021/06/20 03:55:10;;;;;;;2.88;1.20;;;;;;;22.18;45.10;100392.81;3578783;40;20185;-72
2021/06/20 03:57:38;;;;;;;3.03;1.23;;;;;;;22.14;45.01;100399.91;3582222;40;20049;-73
2021/06/20 04:00:15;;;;;;;2.22;1.10;;;;;;;22.15;44.99;100390.44;3578851;40;20279;-73
2021/06/20 04:02:44;;;;;;;3.45;1.25;;;;;;;22.13;44.91;100398.19;3578510;40;20091;-73
2021/06/20 04:05:15;;;;;;;2.10;1.25;;;;;;;22.15;44.82;100402.47;3578997;40;20057;-72
2021/06/20 04:07:53;;;;;;;2.50;1.20;;;;;;;22.13;45.46;100414.91;3577384;40;20068;-72
2021/06/20 04:10:21;;;;;;;2.75;1.35;;;;;;;22.10;44.81;100410.63;3577823;40;20150;-73
2021/06/20 04:12:49;;;;;;;2.20;1.20;;;;;;;22.11;45.17;100404.00;3578587;40;20405;-74
2021/06/20 04:15:22;;;;;;;2.33;1.30;;;;;;;22.10;44.76;100401.41;3577915;40;20065;-73
2021/06/20 04:18:10;;;;;;;2.78;1.40;;;;;;;22.09;44.58;100399.69;3577364;40;20041;-72
2021/06/20 04:21:00;;;;;;;5.15;1.40;;;;;;;22.10;44.50;100401.41;3578411;40;20049;-73
2021/06/20 04:23:48;;;;;;;2.38;1.60;;;;;;;22.06;44.90;100412.16;3577644;40;20119;-73
2021/06/20 04:26:37;;;;;;;2.67;1.40;;;;;;;22.07;44.73;100419.41;3578500;40;20049;-73
2021/06/20 04:29:10;;;;;;;5.43;1.67;;;;;;;22.07;45.16;100419.41;3578604;40;20379;-73
2021/06/20 04:31:38;;;;;;;4.03;1.75;;;;;;;22.09;44.66;100428.41;3578669;40;20051;-73
2021/06/20 04:34:07;;;;;;;2.58;1.77;;;;;;;22.08;44.55;100435.06;3578855;40;20045;-73
2021/06/20 04:36:41;;;;;;;2.58;1.38;;;;;;;22.10;44.71;100434.84;3577571;40;20498;-73
2021/06/20 04:39:11;;;;;;;2.63;1.40;;;;;;;22.08;45.06;100439.78;3578376;40;20052;-73
2021/06/20 04:41:40;;;;;;;2.25;1.20;;;;;;;22.09;44.94;100449.84;3578841;40;20302;-73
2021/06/20 04:44:42;;;;;;;2.30;1.20;;;;;;;22.10;44.72;100448.78;3578646;40;20049;-74
2021/06/20 04:47:03;;;;;;;2.47;1.33;;;;;;;22.08;45.25;100439.78;3578359;40;20053;-73
2021/06/20 04:49:32;;;;;;;3.53;1.45;;;;;;;22.08;45.03;100453.69;3578738;40;20061;-73
2021/06/20 04:52:22;;;;;;;3.42;1.20;;;;;;;22.10;44.73;100454.34;3579050;40;20134;-73
2021/06/20 04:55:11;;;;;;;2.70;1.40;;;;;;;22.07;44.83;100447.25;3578217;40;20133;-73
2021/06/20 04:57:59;;;;;;;3.15;1.25;;;;;;;22.05;44.45;100451.38;3570699;40;20036;-73
2021/06/20 05:00:28;;;;;;;2.40;1.45;;;;;;;22.05;44.61;100443.88;3578853;40;20053;-73
2021/06/20 05:03:16;;;;;;;3.40;1.40;;;;;;;22.02;44.62;100444.28;3576370;40;20045;-73
2021/06/20 05:06:05;;;;;;;2.63;1.20;;;;;;;22.00;44.00;100468.72;3578457;40;20044;-73
2021/06/20 05:08:54;;;;;;;3.38;1.45;;;;;;;22.01;43.96;100464.00;3578670;40;20048;-73
2021/06/20 05:11:42;;;;;;;2.97;1.40;;;;;;;21.96;44.64;100450.75;3578023;40;20065;-73
2021/06/20 05:14:30;;;;;;;3.03;1.25;;;;;;;21.94;44.32;100455.66;3571726;40;20338;-73
2021/06/20 05:17:40;;;;;;;2.00;1.20;;;;;;;21.93;44.66;100456.72;3575807;40;20074;-73
2021/06/20 05:20:28;;;;;;;2.92;1.67;;;;;;;21.91;44.82;100458.88;3575189;40;20321;-74
2021/06/20 05:23:16;;;;;;;2.53;1.30;;;;;;;21.91;44.33;100460.78;3578723;40;20415;-73
2021/06/20 05:26:06;;;;;;;2.55;1.30;;;;;;;21.94;44.72;100464.03;3570447;40;20052;-74
2021/06/20 05:28:54;;;;;;;2.47;1.30;;;;;;;21.93;44.73;100476.22;3578778;40;20052;-73
2021/06/20 05:31:42;;;;;;;2.58;1.27;;;;;;;21.94;45.10;100474.28;3577609;40;20052;-73
2021/06/20 05:34:30;;;;;;;3.95;1.58;;;;;;;21.95;44.53;100476.88;3578533;40;20045;-73
2021/06/20 05:37:18;;;;;;;3.10;1.45;;;;;;;21.96;44.41;100467.44;3577416;40;20133;-74
2021/06/20 05:40:07;;;;;;;3.33;1.70;;;;;;;21.99;44.76;100480.91;3569172;40;20351;-73
2021/06/20 05:42:57;;;;;;;2.80;1.33;;;;;;;22.01;44.57;100477.94;3578618;40;20089;-73
2021/06/20 05:45:43;;;;;;;3.10;1.50;;;;;;;22.01;44.69;100470.44;3578874;40;20041;-74
2021/06/20 05:48:11;;;;;;;2.80;1.55;;;;;;;22.05;45.02;100473.66;3574503;40;20312;-74
2021/06/20 05:50:40;;;;;;;2.70;1.50;;;;;;;22.07;44.78;100468.69;3569912;40;20053;-74
2021/06/20 05:53:08;;;;;;;2.97;1.50;;;;;;;22.09;44.80;100469.34;3577576;40;20049;-74
2021/06/20 05:55:37;;;;;;;2.90;1.42;;;;;;;22.12;44.48;100474.50;3573811;40;20049;-74
2021/06/20 05:58:06;;;;;;;2.20;1.40;;;;;;;22.16;44.58;100476.59;3577965;40;20080;-74
2021/06/20 06:00:35;;;;;;;2.95;1.60;;;;;;;22.17;44.10;100471.88;3575565;40;20093;-74
2021/06/20 06:03:04;;;;;;;3.78;1.40;;;;;;;22.19;44.36;100478.09;3573982;40;20321;-74
2021/06/20 06:05:33;;;;;;;2.08;1.40;;;;;;;22.21;44.32;100483.50;3576628;40;20061;-74
2021/06/20 06:08:02;;;;;;;1.80;1.27;;;;;;;22.22;44.37;100474.94;3574724;40;20096;-73
2021/06/20 06:10:31;;;;;;;3.25;1.30;;;;;;;22.28;43.97;100475.97;3583771;40;20482;-74
2021/06/20 06:12:59;;;;;;;2.40;1.48;;;;;;;22.30;44.22;100483.06;3577340;40;20403;-74
2021/06/20 06:15:29;;;;;;;2.58;1.45;;;;;;;22.37;43.91;100483.88;3577386;40;20179;-74
2021/06/20 06:17:58;;;;;;;2.85;1.30;;;;;;;22.41;44.37;100479.56;3573747;40;20049;-74
2021/06/20 06:20:27;;;;;;;2.25;1.50;;;;;;;22.48;44.27;100491.56;3577977;40;20055;-74
2021/06/20 06:22:57;;;;;;;2.40;1.40;;;;;;;22.54;43.96;100495.41;3575694;40;20060;-74
2021/06/20 06:25:25;;;;;;;3.22;1.48;;;;;;;22.61;43.82;100499.03;3575249;40;20061;-74
2021/06/20 06:27:55;;;;;;;2.25;1.45;;;;;;;22.66;43.83;100489.97;3575080;40;20064;-74
2021/06/20 06:30:24;;;;;;;2.97;1.17;;;;;;;22.73;42.92;100499.16;3578195;40;20060;-74
2021/06/20 06:32:54;;;;;;;2.15;1.23;;;;;;;22.76;43.08;100496.81;3574542;40;20044;-74
2021/06/20 06:35:22;;;;;;;2.78;1.33;;;;;;;22.76;42.46;100493.16;3577331;40;20085;-73
2021/06/20 06:37:52;;;;;;;2.78;1.30;;;;;;;22.77;42.73;100480.94;3576551;40;20045;-73
2021/06/20 06:44:03;;;;;;;3.20;1.30;;;;;;;22.68;42.28;100502.63;3575199;40;20052;-73
2021/06/20 06:46:47;;;;;;;1.83;1.10;;;;;;;22.71;42.42;100491.06;3576072;40;20052;-74
2021/06/20 06:49:17;;;;;;;3.17;1.50;;;;;;;22.69;41.84;100490.41;3575720;40;20056;-74
2021/06/20 06:51:46;;;;;;;2.78;1.40;;;;;;;22.67;42.14;100494.50;3577522;40;20134;-73
2021/06/20 06:54:18;;;;;;;2.08;1.17;;;;;;;22.65;42.03;100502.22;3579091;40;20070;-73
2021/06/20 06:56:46;;;;;;;1.85;1.20;;;;;;;22.64;42.18;100508.91;3576943;40;20324;-74
2021/06/20 06:59:15;;;;;;;2.00;1.10;;;;;;;22.62;41.89;100511.91;3578168;40;20049;-73
2021/06/20 07:01:43;;;;;;;2.78;1.30;;;;;;;22.62;41.83;100505.47;3577812;40;20060;-73
2021/06/20 07:04:12;;;;;;;1.98;1.15;;;;;;;22.58;41.90;100493.88;3578091;40;20432;-74
2021/06/20 07:06:42;;;;;;;1.70;1.15;;;;;;;22.61;41.65;100500.97;3567840;40;20318;-74
2021/06/20 07:09:13;;;;;;;2.28;1.30;;;;;;;22.57;42.27;100508.88;3574171;40;20100;-76
2021/06/20 07:11:44;;;;;;;1.95;1.20;;;;;;;22.58;41.91;100505.03;3572776;40;20138;-75
2021/06/20 07:14:14;;;;;;;2.58;1.35;;;;;;;22.60;41.50;100510.41;3578661;40;20056;-74
2021/06/20 07:16:42;;;;;;;2.40;1.35;;;;;;;22.56;41.28;100515.56;3578553;40;20398;-75
2021/06/20 07:19:10;;;;;;;3.25;1.30;;;;;;;22.54;41.42;100517.72;3579557;40;20068;-75
2021/06/20 07:21:40;;;;;;;1.83;1.30;;;;;;;22.51;41.70;100523.72;3578839;40;20047;-75
2021/06/20 07:24:10;;;;;;;1.80;1.30;;;;;;;22.50;41.19;100514.50;3577352;40;20049;-75
2021/06/20 07:26:38;;;;;;;4.20;1.50;;;;;;;22.48;41.36;100508.28;3575911;40;20393;-75
2021/06/20 07:29:07;;;;;;;2.42;1.27;;;;;;;22.50;41.60;100524.78;3576565;40;20049;-75
2021/06/20 07:31:35;;;;;;;2.53;1.27;;;;;;;22.55;41.73;100527.78;3577138;40;20053;-76
2021/06/20 07:34:04;;;;;;;2.30;1.30;;;;;;;22.60;41.63;100535.47;3577949;40;20061;-75
2021/06/20 07:36:33;;;;;;;2.03;1.30;;;;;;;22.66;42.04;100534.59;3578078;40;20049;-76
2021/06/20 07:39:03;;;;;;;1.65;1.30;;;;;;;22.68;41.96;100532.44;3578639;40;20076;-75
2021/06/20 07:41:34;;;;;;;1.85;1.15;;;;;;;22.75;41.53;100533.28;3578727;40;20045;-76
2021/06/20 07:44:03;;;;;;;2.35;1.33;;;;;;;22.77;41.47;100528.34;3575359;40;20056;-76
2021/06/20 07:46:31;;;;;;;1.65;1.10;;;;;;;22.79;41.39;100526.19;3576008;40;20089;-76
2021/06/20 07:48:59;;;;;;;2.42;1.20;;;;;;;22.83;41.59;100508.81;3576798;40;20053;-76
2021/06/20 07:51:28;;;;;;;2.05;1.02;;;;;;;22.88;41.86;100508.19;3578881;40;20044;-76
2021/06/20 07:54:21;;;;;;;1.88;1.13;;;;;;;22.92;41.98;100503.84;3576797;40;20051;-76
2021/06/20 07:56:51;;;;;;;2.95;1.30;;;;;;;23.02;41.81;100509.81;3575340;40;20065;-76
2021/06/20 07:59:19;;;;;;;2.60;1.20;;;;;;;23.10;41.65;100528.22;3577523;40;20061;-75
2021/06/20 08:01:48;;;;;;;2.88;1.30;;;;;;;23.18;41.23;100530.75;3576989;40;20053;-75
2021/06/20 08:04:16;;;;;;;2.97;1.38;;;;;;;23.27;41.13;100527.47;3579231;40;20064;-76
2021/06/20 08:06:44;;;;;;;3.78;1.40;;;;;;;23.35;40.74;100523.56;3575734;40;20060;-76
2021/06/20 08:09:13;;;;;;;1.33;1.02;;;;;;;23.45;41.06;100525.88;3577377;40;20110;-75
2021/06/20 08:11:42;;;;;;;1.67;1.00;;;;;;;23.52;40.71;100518.34;3578977;40;20044;-76
2021/06/20 08:14:12;;;;;;;1.42;1.10;;;;;;;23.62;40.43;100533.50;3578032;40;20577;-77
2021/06/20 08:16:40;;;;;;;1.85;1.20;;;;;;;23.68;40.23;100534.53;3576301;40;20055;-77
2021/06/20 08:19:10;;;;;;;1.40;1.20;;;;;;;23.74;40.15;100519.66;3580813;40;20037;-76
2021/06/20 08:21:39;;;;;;;1.90;1.13;;;;;;;23.82;39.73;100513.78;3575155;40;20065;-76
2021/06/20 08:24:08;;;;;;;1.83;1.23;;;;;;;23.90;39.99;100507.91;3578591;40;20103;-76
2021/06/20 08:26:37;;;;;;;1.58;0.93;;;;;;;23.95;39.40;100515.63;3583406;40;20048;-76
2021/06/20 08:29:06;;;;;;;1.52;1.00;;;;;;;24.01;39.21;100509.97;3576092;40;20036;-76
2021/06/20 08:31:36;;;;;;;2.65;1.10;;;;;;;24.08;39.03;100512.72;3576643;40;20091;-76
2021/06/20 08:34:07;;;;;;;2.92;1.25;;;;;;;24.12;38.74;100527.97;3579414;40;20048;-77
2021/06/20 08:36:35;;;;;;;2.03;1.20;;;;;;;24.17;38.62;100530.06;3580209;40;20056;-76
2021/06/20 08:39:06;;;;;;;1.67;1.00;;;;;;;24.22;38.54;100521.81;3578452;40;20053;-76
2021/06/20 08:41:40;;;;;;;2.45;1.05;;;;;;;24.29;38.16;100517.88;3578077;40;20056;-76
2021/06/20 08:44:19;;;;;;;1.70;1.10;;;;;;;24.34;37.84;100526.44;3577225;40;20041;-76
2021/06/20 08:46:50;;;;;;;2.58;1.10;;;;;;;24.37;37.92;100516.75;3574406;40;20057;-77
2021/06/20 08:49:19;;;;;;;1.77;1.00;;;;;;;24.40;37.75;100505.06;3577976;40;20056;-77
2021/06/20 08:51:51;;;;;;;0.98;0.90;;;;;;;24.48;37.44;100506.72;3577736;40;20124;-77
2021/06/20 08:54:20;;;;;;;1.63;1.02;;;;;;;24.50;38.11;100512.94;3579148;40;20037;-76
2021/06/20 08:56:50;;;;;;;1.35;1.10;;;;;;;24.56;37.71;100520.38;3577823;40;20093;-76
2021/06/20 08:59:19;;;;;;;1.40;1.00;;;;;;;24.61;37.64;100521.41;3577866;40;20059;-82
2021/06/20 09:01:51;;;;;;;2.22;1.15;;;;;;;24.66;37.43;100503.94;3569480;40;20042;-83
2021/06/20 09:04:31;;;;;;;1.50;0.98;;;;;;;24.73;37.17;100501.91;3570467;40;20084;-82
2021/06/20 09:07:08;;;;;;;1.75;1.30;;;;;;;24.78;37.02;100513.28;3571160;40;20030;-83
2021/06/20 09:09:38;;;;;;;1.92;1.20;;;;;;;24.80;37.38;100513.88;3570179;40;20049;-82
2021/06/20 09:12:10;;;;;;;1.63;1.00;;;;;;;24.88;36.60;100512.69;3569985;40;20029;-82
2021/06/20 09:14:44;;;;;;;1.50;1.10;;;;;;;24.93;35.79;100510.06;3568741;40;20037;-82
2021/06/20 09:17:26;;;;;;;1.40;0.98;;;;;;;25.00;35.91;100516.44;3570734;40;20037;-83
2021/06/20 09:19:57;;;;;;;2.42;1.13;;;;;;;25.04;35.50;100515.72;3569954;40;20119;-83
2021/06/20 09:22:26;;;;;;;1.75;0.98;;;;;;;25.07;35.60;100525.59;3561533;40;20327;-82
2021/06/20 09:25:01;;;;;;;2.00;0.98;;;;;;;25.12;34.48;100515.38;3570259;40;20030;-82
2021/06/20 09:27:30;;;;;;;1.40;1.05;;;;;;;25.12;35.40;100523.78;3569919;40;20041;-82
2021/06/20 09:30:22;;;;;;;2.03;1.00;;;;;;;25.18;35.25;100520.06;3569784;40;20044;-83
2021/06/20 09:32:56;;;;;;;1.40;0.95;;;;;;;25.27;34.25;100519.75;3569475;40;20025;-83
2021/06/20 09:35:25;;;;;;;0.85;0.80;;;;;;;25.24;35.08;100520.22;3570092;40;20131;-83
2021/06/20 09:37:55;;;;;;;1.55;0.98;;;;;;;25.30;34.55;100522.06;3569504;40;20092;-83
2021/06/20 09:40:30;;;;;;;1.67;1.13;;;;;;;25.34;33.70;100534.50;3570021;40;20071;-82
2021/06/20 09:43:12;;;;;;;1.30;0.90;;;;;;;25.37;33.75;100534.00;3561779;40;20034;-81
2021/06/20 09:45:49;;;;;;;1.25;0.90;;;;;;;25.35;34.15;100531.47;3570617;40;20033;-82
2021/06/20 09:48:24;;;;;;;1.73;0.80;;;;;;;25.41;33.04;100540.84;3570733;40;20029;-82
2021/06/20 09:50:55;;;;;;;1.80;1.00;;;;;;;25.39;33.27;100538.28;3562536;40;20037;-85
2021/06/20 09:53:37;;;;;;;1.80;0.90;;;;;;;25.42;32.75;100539.78;3569698;40;20034;-81
2021/06/20 09:56:18;;;;;;;1.73;0.98;;;;;;;25.42;32.82;100548.16;3569588;40;20029;-82
2021/06/20 09:58:48;;;;;;;1.33;0.73;;;;;;;25.40;32.47;100542.81;3570615;40;20190;-82
2021/06/20 10:01:19;;;;;;;1.63;1.10;;;;;;;25.39;32.72;100546.69;3577452;40;20034;-81
2021/06/20 10:03:52;;;;;;;1.20;0.88;;;;;;;25.39;32.77;100541.09;3569969;40;20026;-81
2021/06/20 10:06:21;;;;;;;1.45;0.90;;;;;;;25.39;32.76;100538.28;3560986;40;20298;-82
2021/06/20 10:08:50;;;;;;;1.55;1.00;;;;;;;25.41;32.86;100549.25;3569204;40;20046;-81
2021/06/20 10:11:19;;;;;;;1.40;0.98;;;;;;;25.43;32.72;100538.69;3569265;40;20051;-82
2021/06/20 10:13:48;;;;;;;1.50;0.93;;;;;;;25.46;32.58;100536.25;3569058;40;20033;-80
2021/06/20 10:16:22;;;;;;;1.52;1.00;;;;;;;25.54;32.66;100543.44;3568882;40;20034;-81
2021/06/20 10:18:58;;;;;;;1.60;0.90;;;;;;;25.59;32.09;100537.16;3561155;40;20057;-81
2021/06/20 10:21:31;;;;;;;1.27;1.00;;;;;;;25.61;32.52;100533.00;3569840;40;20041;-82
2021/06/20 10:24:08;;;;;;;1.77;1.10;;;;;;;25.64;32.90;100532.53;3569035;40;20302;-81
2021/06/20 10:26:38;;;;;;;1.50;1.10;;;;;;;25.68;33.17;100541.31;3560160;40;20036;-83
2021/06/20 10:29:19;;;;;;;1.50;1.15;;;;;;;25.73;32.83;100536.69;3570061;40;20041;-82
2021/06/20 10:31:48;;;;;;;1.92;1.10;;;;;;;25.76;32.77;100538.16;3569028;40;20049;-81
2021/06/20 10:34:24;;;;;;;1.38;1.00;;;;;;;25.82;32.63;100537.22;3569390;40;20097;-79
2021/06/20 10:36:55;;;;;;;1.23;1.00;;;;;;;25.83;32.96;100533.34;3560391;40;20050;-79
2021/06/20 10:39:26;;;;;;;2.05;1.10;;;;;;;25.86;32.44;100527.22;3561158;40;20036;-80
2021/06/20 10:42:10;;;;;;;2.30;1.00;;;;;;;25.88;32.27;100525.91;3568972;40;20033;-81
2021/06/20 10:44:48;;;;;;;1.38;1.08;;;;;;;25.91;32.20;100530.19;3569775;40;20037;-79
2021/06/20 10:47:30;;;;;;;2.53;1.30;;;;;;;25.92;32.25;100526.28;3578591;40;20037;-79
2021/06/20 10:50:02;;;;;;;1.83;1.15;;;;;;;25.94;32.14;100519.31;3569199;40;20111;-81
2021/06/20 10:52:30;;;;;;;1.33;1.10;;;;;;;25.94;32.49;100524.94;3568566;40;20034;-80
2021/06/20 10:55:11;;;;;;;2.55;1.20;;;;;;;26.02;32.63;100511.69;3576560;40;20030;-79
2021/06/20 10:57:48;;;;;;;1.52;1.10;;;;;;;26.06;32.26;100508.13;3569255;40;20045;-79
2021/06/20 11:00:28;;;;;;;1.80;1.20;;;;;;;26.12;32.49;100500.69;3568176;40;20084;-81
2021/06/20 11:03:08;;;;;;;2.33;1.10;;;;;;;26.20;32.62;100497.50;3568530;40;20034;-79
2021/06/20 11:05:51;;;;;;;2.10;1.17;;;;;;;26.27;32.44;100498.25;3569651;40;20041;-80
2021/06/20 11:08:31;;;;;;;2.33;1.20;;;;;;;26.33;32.03;100496.44;3569283;40;20030;-81
2021/06/20 11:11:15;;;;;;;2.22;0.95;;;;;;;26.36;32.24;100498.72;3568165;40;20092;-80
2021/06/20 11:13:47;;;;;;;2.28;1.20;;;;;;;26.38;31.89;100504.97;3568602;40;20396;-81
2021/06/20 11:16:25;;;;;;;2.17;1.20;;;;;;;26.40;32.32;100494.38;3569023;40;20037;-81
2021/06/20 11:19:09;;;;;;;1.98;1.00;;;;;;;26.42;32.06;100493.03;3569086;40;20147;-81
2021/06/20 11:21:41;;;;;;;1.60;1.00;;;;;;;26.45;31.75;100486.06;3569085;40;20038;-80
2021/06/20 11:24:10;;;;;;;;;;;;;;;26.15;32.98;100466.56;3569941;40;20360;-80
2021/06/20 11:26:39;;;;;;;1.38;1.05;;;;;;;26.44;31.91;100462.78;3567798;40;20254;-80
2021/06/20 11:29:09;;;;;;;1.80;1.20;;;;;;;26.52;31.93;100465.19;3576947;40;20034;-81
2021/06/20 11:31:47;;;;;;;2.28;1.20;;;;;;;26.58;31.60;100483.00;3568115;40;20037;-82
2021/06/20 11:34:16;;;;;;;2.00;1.30;;;;;;;26.59;31.66;100476.31;3568299;40;20025;-80
2021/06/20 11:36:49;;;;;;;1.90;1.38;;;;;;;26.66;31.20;100471.41;3568557;40;20074;-81
2021/06/20 11:39:36;;;;;;;2.03;1.23;;;;;;;26.69;31.47;100452.09;3570778;40;20030;-80
2021/06/20 11:42:05;;;;;;;2.55;1.13;;;;;;;26.74;31.78;100448.56;3569772;40;20040;-79
2021/06/20 11:44:34;;;;;;;1.38;1.10;;;;;;;26.80;31.82;100441.94;3569582;40;20305;-80
2021/06/20 11:47:03;;;;;;;2.17;1.23;;;;;;;26.88;31.54;100447.16;3569570;40;20390;-81
2021/06/20 11:49:32;;;;;;;1.92;1.20;;;;;;;26.94;31.20;100446.19;3570693;40;20037;-80
2021/06/20 11:52:02;;;;;;;1.52;1.25;;;;;;;27.01;31.21;100444.06;3569728;40;20092;-81